sensor_id;sensor_type;location;lat;lon;timestamp;pressure;altitude;pressure_sealevel;temperature;humidity
11198;BME280;5655;48.744;9.162;2022-11-15T00:01:32;95932.19;;;11.63;100.00
11198;BME280;5655;48.744;9.162;2022-11-15T00:03:57;95919.09;;;11.48;100.00
11198;BME280;5655;48.744;9.162;2022-11-15T00:06:22;95917.53;;;11.36;100.00
11198;BME280;5655;48.744;9.162;2022-11-15T00:08:48;95922.91;;;11.39;100.00
11198;BME280;5655;48.744;9.162;2022-11-15T00:11:13;95915.22;;;11.31;100.00
11198;BME280;5655;48.744;9.162;2022-11-15T00:13:39;95923.66;;;11.36;100.00
11198;BME280;5655;48.744;9.162;2022-11-15T00:16:04;95928.38;;;11.71;100.00
11198;BME280;5655;48.744;9.162;2022-11-15T00:18:30;95929.56;;;11.81;100.00
11198;BME280;5655;48.744;9.162;2022-11-15T00:21:02;95922.28;;;11.85;100.00
11198;BME280;5655;48.744;9.162;2022-11-15T00:23:28;95921.53;;;11.95;100.00
11198;BME280;5655;48.744;9.162;2022-11-15T00:25:56;95914.66;;;11.98;100.00
11198;BME280;5655;48.744;9.162;2022-11-15T00:28:22;95905.75;;;11.65;100.00
11198;BME280;5655;48.744;9.162;2022-11-15T00:30:47;95912.72;;;11.77;100.00
11198;BME280;5655;48.744;9.162;2022-11-15T00:33:13;95909.25;;;11.80;100.00
11198;BME280;5655;48.744;9.162;2022-11-15T00:35:38;95909.25;;;11.80;100.00
11198;BME280;5655;48.744;9.162;2022-11-15T00:38:03;95908.84;;;11.78;100.00
11198;BME280;5655;48.744;9.162;2022-11-15T00:40:29;95903.53;;;11.89;100.00
11198;BME280;5655;48.744;9.162;2022-11-15T00:42:55;95904.69;;;11.98;100.00
11198;BME280;5655;48.744;9.162;2022-11-15T00:45:20;95907.72;;;11.79;100.00
11198;BME280;5655;48.744;9.162;2022-11-15T00:47:46;95900.84;;;11.81;100.00
11198;BME280;5655;48.744;9.162;2022-11-15T00:50:11;95893.16;;;11.73;100.00
11198;BME280;5655;48.744;9.162;2022-11-15T00:52:37;95890.84;;;11.75;100.00
11198;BME280;5655;48.744;9.162;2022-11-15T00:55:02;95893.50;;;11.64;100.00
11198;BME280;5655;48.744;9.162;2022-11-15T00:57:28;95887.38;;;11.67;100.00
11198;BME280;5655;48.744;9.162;2022-11-15T00:59:53;95884.66;;;11.50;100.00
11198;BME280;5655;48.744;9.162;2022-11-15T01:02:18;95879.28;;;11.43;100.00
11198;BME280;5655;48.744;9.162;2022-11-15T01:04:44;95877.38;;;11.43;100.00
11198;BME280;5655;48.744;9.162;2022-11-15T01:07:09;95877.34;;;11.32;100.00
11198;BME280;5655;48.744;9.162;2022-11-15T01:09:34;95867.41;;;11.36;100.00
11198;BME280;5655;48.744;9.162;2022-11-15T01:12:00;95855.44;;;11.09;100.00
11198;BME280;5655;48.744;9.162;2022-11-15T01:14:25;95858.53;;;11.18;100.00
11198;BME280;5655;48.744;9.162;2022-11-15T01:16:51;95866.59;;;11.22;100.00
11198;BME280;5655;48.744;9.162;2022-11-15T01:19:16;95853.88;;;10.94;100.00
11198;BME280;5655;48.744;9.162;2022-11-15T01:21:41;95857.34;;;11.05;100.00
11198;BME280;5655;48.744;9.162;2022-11-15T01:24:07;95854.69;;;11.05;100.00
11198;BME280;5655;48.744;9.162;2022-11-15T01:26:33;95861.97;;;11.08;100.00
11198;BME280;5655;48.744;9.162;2022-11-15T01:28:58;95847.75;;;10.90;100.00
11198;BME280;5655;48.744;9.162;2022-11-15T01:31:23;95850.38;;;10.83;100.00
11198;BME280;5655;48.744;9.162;2022-11-15T01:33:48;95850.09;;;11.06;100.00
11198;BME280;5655;48.744;9.162;2022-11-15T01:36:17;95857.03;;;11.24;100.00
11198;BME280;5655;48.744;9.162;2022-11-15T01:38:43;95846.91;;;10.72;100.00
11198;BME280;5655;48.744;9.162;2022-11-15T01:41:16;95839.34;;;10.95;100.00
11198;BME280;5655;48.744;9.162;2022-11-15T01:43:42;95833.09;;;10.63;100.00
11198;BME280;5655;48.744;9.162;2022-11-15T01:48:53;95839.28;;;10.81;100.00
11198;BME280;5655;48.744;9.162;2022-11-15T01:51:22;95835.06;;;10.76;100.00
11198;BME280;5655;48.744;9.162;2022-11-15T01:53:52;95837.41;;;10.85;100.00
11198;BME280;5655;48.744;9.162;2022-11-15T01:56:23;95837.03;;;10.86;100.00
11198;BME280;5655;48.744;9.162;2022-11-15T01:58:49;95833.94;;;10.84;100.00
11198;BME280;5655;48.744;9.162;2022-11-15T02:01:16;95830.13;;;10.82;100.00
11198;BME280;5655;48.744;9.162;2022-11-15T02:04:04;95840.13;;;10.99;100.00
11198;BME280;5655;48.744;9.162;2022-11-15T02:06:31;95833.94;;;10.77;100.00
11198;BME280;5655;48.744;9.162;2022-11-15T02:08:56;95820.78;;;10.48;100.00
11198;BME280;5655;48.744;9.162;2022-11-15T02:11:22;95815.81;;;10.53;100.00
11198;BME280;5655;48.744;9.162;2022-11-15T02:13:48;95823.16;;;10.60;100.00
11198;BME280;5655;48.744;9.162;2022-11-15T02:21:46;95819.06;;;10.94;100.00
11198;BME280;5655;48.744;9.162;2022-11-15T02:30:17;95804.09;;;10.79;100.00
11198;BME280;5655;48.744;9.162;2022-11-15T02:33:00;95804.84;;;10.69;100.00
11198;BME280;5655;48.744;9.162;2022-11-15T02:35:55;95806.38;;;10.70;100.00
11198;BME280;5655;48.744;9.162;2022-11-15T02:38:37;95788.34;;;10.60;100.00
11198;BME280;5655;48.744;9.162;2022-11-15T02:41:24;95786.00;;;10.48;100.00
11198;BME280;5655;48.744;9.162;2022-11-15T02:44:02;95780.25;;;10.45;100.00
11198;BME280;5655;48.744;9.162;2022-11-15T02:46:39;95784.13;;;10.55;100.00
11198;BME280;5655;48.744;9.162;2022-11-15T02:49:27;95778.69;;;10.34;100.00
11198;BME280;5655;48.744;9.162;2022-11-15T02:51:54;95774.91;;;10.42;100.00
11198;BME280;5655;48.744;9.162;2022-11-15T02:54:22;95773.38;;;10.44;100.00
11198;BME280;5655;48.744;9.162;2022-11-15T02:56:49;95774.91;;;10.45;100.00
11198;BME280;5655;48.744;9.162;2022-11-15T02:59:37;95777.28;;;10.65;100.00
11198;BME280;5655;48.744;9.162;2022-11-15T03:04:56;95774.97;;;10.60;100.00
11198;BME280;5655;48.744;9.162;2022-11-15T03:07:36;95767.97;;;10.30;100.00
11198;BME280;5655;48.744;9.162;2022-11-15T03:10:21;95771.22;;;10.82;100.00
11198;BME280;5655;48.744;9.162;2022-11-15T03:15:40;95759.69;;;10.57;100.00
11198;BME280;5655;48.744;9.162;2022-11-15T03:18:17;95758.91;;;10.56;100.00
11198;BME280;5655;48.744;9.162;2022-11-15T03:20:45;95757.66;;;10.32;100.00
11198;BME280;5655;48.744;9.162;2022-11-15T03:23:11;95757.66;;;10.32;100.00
11198;BME280;5655;48.744;9.162;2022-11-15T03:25:41;95762.78;;;10.73;100.00
11198;BME280;5655;48.744;9.162;2022-11-15T03:28:10;95761.25;;;10.72;100.00
11198;BME280;5655;48.744;9.162;2022-11-15T03:30:39;95758.91;;;10.56;100.00
11198;BME280;5655;48.744;9.162;2022-11-15T03:33:05;95750.44;;;10.43;100.00
11198;BME280;5655;48.744;9.162;2022-11-15T03:35:36;95762.03;;;10.83;100.00
11198;BME280;5655;48.744;9.162;2022-11-15T03:38:24;95752.50;;;10.92;100.00
11198;BME280;5655;48.744;9.162;2022-11-15T03:40:58;95744.41;;;10.71;100.00
11198;BME280;5655;48.744;9.162;2022-11-15T03:43:32;95738.34;;;10.78;100.00
11198;BME280;5655;48.744;9.162;2022-11-15T03:46:13;95736.06;;;10.94;100.00
11198;BME280;5655;48.744;9.162;2022-11-15T03:48:43;95747.56;;;10.95;100.00
11198;BME280;5655;48.744;9.162;2022-11-15T03:51:11;95755.19;;;10.85;100.00
11198;BME280;5655;48.744;9.162;2022-11-15T03:53:36;95739.84;;;10.68;100.00
11198;BME280;5655;48.744;9.162;2022-11-15T03:56:01;95740.59;;;10.69;100.00
11198;BME280;5655;48.744;9.162;2022-11-15T03:58:27;95734.47;;;10.72;100.00
11198;BME280;5655;48.744;9.162;2022-11-15T04:00:52;95733.72;;;10.68;100.00
11198;BME280;5655;48.744;9.162;2022-11-15T04:03:17;95742.56;;;10.86;100.00
11198;BME280;5655;48.744;9.162;2022-11-15T04:05:43;95740.66;;;10.93;100.00
11198;BME280;5655;48.744;9.162;2022-11-15T04:08:08;95733.72;;;10.71;100.00
11198;BME280;5655;48.744;9.162;2022-11-15T04:10:33;95736.03;;;10.80;100.00
11198;BME280;5655;48.744;9.162;2022-11-15T04:12:59;95719.91;;;10.52;100.00
11198;BME280;5655;48.744;9.162;2022-11-15T04:15:24;95721.03;;;10.51;100.00
11198;BME280;5655;48.744;9.162;2022-11-15T04:17:52;95705.88;;;11.04;100.00
11198;BME280;5655;48.744;9.162;2022-11-15T04:20:20;95726.53;;;11.00;100.00
11198;BME280;5655;48.744;9.162;2022-11-15T04:23:10;95727.25;;;10.86;100.00
11198;BME280;5655;48.744;9.162;2022-11-15T04:25:56;95736.44;;;10.89;100.00
11198;BME280;5655;48.744;9.162;2022-11-15T04:28:22;95727.22;;;10.69;100.00
11198;BME280;5655;48.744;9.162;2022-11-15T04:30:48;95739.06;;;10.68;100.00
11198;BME280;5655;48.744;9.162;2022-11-15T04:33:14;95729.13;;;10.61;100.00
11198;BME280;5655;48.744;9.162;2022-11-15T04:35:39;95716.03;;;10.38;100.00
11198;BME280;5655;48.744;9.162;2022-11-15T04:38:06;95722.94;;;10.54;100.00
11198;BME280;5655;48.744;9.162;2022-11-15T04:40:32;95709.91;;;10.38;100.00
11198;BME280;5655;48.744;9.162;2022-11-15T04:42:57;95712.59;;;10.34;100.00
11198;BME280;5655;48.744;9.162;2022-11-15T04:45:23;95706.88;;;10.39;100.00
11198;BME280;5655;48.744;9.162;2022-11-15T04:47:48;95701.13;;;10.37;100.00
11198;BME280;5655;48.744;9.162;2022-11-15T04:50:14;95704.56;;;10.34;100.00
11198;BME280;5655;48.744;9.162;2022-11-15T04:52:50;95704.56;;;10.41;100.00
11198;BME280;5655;48.744;9.162;2022-11-15T04:55:16;95698.00;;;10.21;100.00
11198;BME280;5655;48.744;9.162;2022-11-15T04:57:41;95709.75;;;10.10;100.00
11198;BME280;5655;48.744;9.162;2022-11-15T05:00:09;95704.16;;;10.29;100.00
11198;BME280;5655;48.744;9.162;2022-11-15T05:02:35;95701.34;;;10.04;100.00
11198;BME280;5655;48.744;9.162;2022-11-15T05:05:19;95690.66;;;10.11;100.00
11198;BME280;5655;48.744;9.162;2022-11-15T05:07:45;95690.00;;;10.25;100.00
11198;BME280;5655;48.744;9.162;2022-11-15T05:10:10;95693.88;;;10.45;100.00
11198;BME280;5655;48.744;9.162;2022-11-15T05:12:36;95693.50;;;10.43;100.00
11198;BME280;5655;48.744;9.162;2022-11-15T05:15:01;95687.38;;;10.39;100.00
11198;BME280;5655;48.744;9.162;2022-11-15T05:17:27;95685.47;;;10.39;100.00
11198;BME280;5655;48.744;9.162;2022-11-15T05:19:52;95685.84;;;10.41;100.00
11198;BME280;5655;48.744;9.162;2022-11-15T05:22:18;95694.28;;;10.51;100.00
11198;BME280;5655;48.744;9.162;2022-11-15T05:24:44;95684.69;;;10.39;100.00
11198;BME280;5655;48.744;9.162;2022-11-15T05:27:09;95697.38;;;10.53;100.00
11198;BME280;5655;48.744;9.162;2022-11-15T05:29:34;95692.78;;;10.57;100.00
11198;BME280;5655;48.744;9.162;2022-11-15T05:32:00;95691.19;;;10.41;100.00
11198;BME280;5655;48.744;9.162;2022-11-15T05:34:26;95684.34;;;10.48;100.00
11198;BME280;5655;48.744;9.162;2022-11-15T05:36:52;95683.16;;;10.34;100.00
11198;BME280;5655;48.744;9.162;2022-11-15T05:39:17;95677.03;;;10.37;100.00
11198;BME280;5655;48.744;9.162;2022-11-15T05:41:45;95687.03;;;10.55;100.00
11198;BME280;5655;48.744;9.162;2022-11-15T05:44:14;95675.56;;;10.51;100.00
11198;BME280;5655;48.744;9.162;2022-11-15T05:46:41;95675.97;;;10.53;100.00
11198;BME280;5655;48.744;9.162;2022-11-15T05:49:10;95679.41;;;10.71;100.00
11198;BME280;5655;48.744;9.162;2022-11-15T05:51:38;95678.66;;;10.70;100.00
11198;BME280;5655;48.744;9.162;2022-11-15T05:54:04;95677.91;;;10.84;100.00
11198;BME280;5655;48.744;9.162;2022-11-15T05:56:29;95672.53;;;10.63;100.00
11198;BME280;5655;48.744;9.162;2022-11-15T05:58:56;95684.00;;;10.67;100.00
11198;BME280;5655;48.744;9.162;2022-11-15T06:01:22;95677.81;;;10.38;100.00
11198;BME280;5655;48.744;9.162;2022-11-15T06:03:49;95669.38;;;10.32;100.00
11198;BME280;5655;48.744;9.162;2022-11-15T06:06:14;95669.78;;;10.34;100.00
11198;BME280;5655;48.744;9.162;2022-11-15T06:08:40;95668.50;;;10.07;100.00
11198;BME280;5655;48.744;9.162;2022-11-15T06:11:06;95650.03;;;9.81;100.00
11198;BME280;5655;48.744;9.162;2022-11-15T06:13:32;95657.69;;;9.79;100.00
11198;BME280;5655;48.744;9.162;2022-11-15T06:15:58;95658.31;;;9.58;100.00
11198;BME280;5655;48.744;9.162;2022-11-15T06:18:24;95650.25;;;9.51;100.00
11198;BME280;5655;48.744;9.162;2022-11-15T06:20:49;95653.34;;;9.53;100.00
11198;BME280;5655;48.744;9.162;2022-11-15T06:23:14;95653.69;;;9.51;100.00
11198;BME280;5655;48.744;9.162;2022-11-15T06:25:40;95654.38;;;9.41;100.00
11198;BME280;5655;48.744;9.162;2022-11-15T06:28:05;95653.66;;;9.44;100.00
11198;BME280;5655;48.744;9.162;2022-11-15T06:30:30;95647.47;;;9.33;100.00
11198;BME280;5655;48.744;9.162;2022-11-15T06:33:04;95652.25;;;9.61;100.00
11198;BME280;5655;48.744;9.162;2022-11-15T06:35:30;95655.09;;;9.31;100.00
11198;BME280;5655;48.744;9.162;2022-11-15T06:37:56;95651.28;;;9.32;100.00
11198;BME280;5655;48.744;9.162;2022-11-15T06:40:21;95654.38;;;9.41;100.00
11198;BME280;5655;48.744;9.162;2022-11-15T06:42:47;95652.78;;;9.26;100.00
11198;BME280;5655;48.744;9.162;2022-11-15T06:45:12;95652.78;;;9.26;100.00
11198;BME280;5655;48.744;9.162;2022-11-15T06:47:46;95654.78;;;9.40;100.00
11198;BME280;5655;48.744;9.162;2022-11-15T06:50:12;95666.47;;;9.21;100.00
11198;BME280;5655;48.744;9.162;2022-11-15T06:52:37;95666.38;;;9.10;100.00
11198;BME280;5655;48.744;9.162;2022-11-15T06:55:03;95667.25;;;9.22;100.00
11198;BME280;5655;48.744;9.162;2022-11-15T06:57:28;95672.94;;;9.20;100.00
11198;BME280;5655;48.744;9.162;2022-11-15T06:59:53;95675.69;;;9.27;100.00
11198;BME280;5655;48.744;9.162;2022-11-15T07:02:18;95674.47;;;9.21;100.00
11198;BME280;5655;48.744;9.162;2022-11-15T07:04:44;95677.97;;;9.32;100.00
11198;BME280;5655;48.744;9.162;2022-11-15T07:07:09;95680.28;;;9.30;100.00
11198;BME280;5655;48.744;9.162;2022-11-15T07:09:34;95683.75;;;9.38;100.00
11198;BME280;5655;48.744;9.162;2022-11-15T07:12:00;95683.31;;;9.32;100.00
11198;BME280;5655;48.744;9.162;2022-11-15T07:14:25;95679.63;;;9.47;100.00
11198;BME280;5655;48.744;9.162;2022-11-15T07:16:50;95676.16;;;9.43;100.00
11198;BME280;5655;48.744;9.162;2022-11-15T07:19:16;95677.34;;;9.49;100.00
11198;BME280;5655;48.744;9.162;2022-11-15T07:21:41;95677.00;;;9.54;100.00
11198;BME280;5655;48.744;9.162;2022-11-15T07:24:06;95686.50;;;9.48;100.00
11198;BME280;5655;48.744;9.162;2022-11-15T07:26:32;95675.75;;;9.41;100.00
11198;BME280;5655;48.744;9.162;2022-11-15T07:28:57;95685.00;;;9.51;100.00
11198;BME280;5655;48.744;9.162;2022-11-15T07:31:22;95682.69;;;9.49;100.00
11198;BME280;5655;48.744;9.162;2022-11-15T07:33:48;95677.41;;;9.56;100.00
11198;BME280;5655;48.744;9.162;2022-11-15T07:36:13;95681.75;;;9.79;100.00
11198;BME280;5655;48.744;9.162;2022-11-15T07:38:38;95687.50;;;9.88;100.00
11198;BME280;5655;48.744;9.162;2022-11-15T07:41:05;95685.78;;;10.24;100.00
11198;BME280;5655;48.744;9.162;2022-11-15T07:43:30;95688.44;;;10.20;100.00
11198;BME280;5655;48.744;9.162;2022-11-15T07:45:59;95688.16;;;10.46;100.00
11198;BME280;5655;48.744;9.162;2022-11-15T07:48:24;95694.28;;;10.51;100.00
11198;BME280;5655;48.744;9.162;2022-11-15T07:50:49;95688.94;;;10.51;100.00
11198;BME280;5655;48.744;9.162;2022-11-15T07:53:15;95687.06;;;10.69;100.00
11198;BME280;5655;48.744;9.162;2022-11-15T07:55:41;95685.19;;;11.01;100.00
11198;BME280;5655;48.744;9.162;2022-11-15T07:58:09;95697.06;;;11.07;100.00
11198;BME280;5655;48.744;9.162;2022-11-15T08:00:35;95682.53;;;11.22;100.00
11198;BME280;5655;48.744;9.162;2022-11-15T08:03:05;95689.03;;;11.35;100.00
11198;BME280;5655;48.744;9.162;2022-11-15T08:05:32;95689.41;;;11.48;100.00
11198;BME280;5655;48.744;9.162;2022-11-15T08:07:58;95694.00;;;11.69;100.00
11198;BME280;5655;48.744;9.162;2022-11-15T08:10:24;95684.41;;;11.57;100.00
11198;BME280;5655;48.744;9.162;2022-11-15T08:13:06;95692.47;;;11.75;100.00
11198;BME280;5655;48.744;9.162;2022-11-15T08:15:33;95685.56;;;11.53;100.00
11198;BME280;5655;48.744;9.162;2022-11-15T08:18:01;95684.41;;;11.68;100.00
11198;BME280;5655;48.744;9.162;2022-11-15T08:20:28;95680.22;;;11.74;100.00
11198;BME280;5655;48.744;9.162;2022-11-15T08:22:57;95685.50;;;12.02;100.00
11198;BME280;5655;48.744;9.162;2022-11-15T08:25:23;95682.13;;;11.84;100.00
11198;BME280;5655;48.744;9.162;2022-11-15T08:27:52;95688.19;;;12.02;100.00
11198;BME280;5655;48.744;9.162;2022-11-15T08:30:18;95685.13;;;11.97;100.00
11198;BME280;5655;48.744;9.162;2022-11-15T08:32:43;95687.81;;;12.00;100.00
11198;BME280;5655;48.744;9.162;2022-11-15T08:35:09;95674.00;;;12.05;100.00
11198;BME280;5655;48.744;9.162;2022-11-15T08:37:34;95669.03;;;12.00;100.00
11198;BME280;5655;48.744;9.162;2022-11-15T08:40:00;95676.25;;;12.24;100.00
11198;BME280;5655;48.744;9.162;2022-11-15T08:42:25;95676.94;;;12.36;100.00
11198;BME280;5655;48.744;9.162;2022-11-15T08:44:50;95677.00;;;12.28;100.00
11198;BME280;5655;48.744;9.162;2022-11-15T08:47:15;95673.16;;;12.30;100.00
11198;BME280;5655;48.744;9.162;2022-11-15T08:49:41;95671.44;;;12.60;100.00
11198;BME280;5655;48.744;9.162;2022-11-15T08:52:06;95666.78;;;12.75;100.00
11198;BME280;5655;48.744;9.162;2022-11-15T08:54:31;95669.19;;;13.17;100.00
11198;BME280;5655;48.744;9.162;2022-11-15T08:56:57;95652.34;;;13.10;100.00
11198;BME280;5655;48.744;9.162;2022-11-15T08:59:22;95657.53;;;13.35;100.00
11198;BME280;5655;48.744;9.162;2022-11-15T09:01:47;95661.34;;;13.41;100.00
11198;BME280;5655;48.744;9.162;2022-11-15T09:04:13;95670.63;;;13.74;100.00
11198;BME280;5655;48.744;9.162;2022-11-15T09:06:38;95657.03;;;13.88;100.00
11198;BME280;5655;48.744;9.162;2022-11-15T09:09:03;95664.47;;;13.73;100.00
11198;BME280;5655;48.744;9.162;2022-11-15T09:11:29;95669.72;;;13.87;100.00
11198;BME280;5655;48.744;9.162;2022-11-15T09:13:54;95665.63;;;14.09;100.00
11198;BME280;5655;48.744;9.162;2022-11-15T09:16:19;95662.28;;;14.36;100.00
11198;BME280;5655;48.744;9.162;2022-11-15T09:18:45;95654.38;;;14.52;100.00
11198;BME280;5655;48.744;9.162;2022-11-15T09:21:10;95655.81;;;14.60;100.00
11198;BME280;5655;48.744;9.162;2022-11-15T09:23:37;95659.25;;;14.30;100.00
11198;BME280;5655;48.744;9.162;2022-11-15T09:26:03;95652.91;;;14.74;100.00
11198;BME280;5655;48.744;9.162;2022-11-15T09:28:30;95657.78;;;14.56;100.00
11198;BME280;5655;48.744;9.162;2022-11-15T09:30:57;95660.06;;;14.84;100.00
11198;BME280;5655;48.744;9.162;2022-11-15T09:33:23;95657.59;;;14.70;100.00
11198;BME280;5655;48.744;9.162;2022-11-15T09:35:48;95660.06;;;14.84;100.00
11198;BME280;5655;48.744;9.162;2022-11-15T09:38:14;95656.16;;;15.39;100.00
11198;BME280;5655;48.744;9.162;2022-11-15T09:40:39;95649.31;;;15.58;100.00
11198;BME280;5655;48.744;9.162;2022-11-15T09:48:55;95644.75;;;16.53;100.00
11198;BME280;5655;48.744;9.162;2022-11-15T09:56:46;95638.16;;;16.38;100.00
11198;BME280;5655;48.744;9.162;2022-11-15T10:01:53;95637.03;;;16.55;100.00
11198;BME280;5655;48.744;9.162;2022-11-15T10:04:22;95638.00;;;16.65;100.00
11198;BME280;5655;48.744;9.162;2022-11-15T10:07:16;95633.28;;;16.49;100.00
11198;BME280;5655;48.744;9.162;2022-11-15T10:12:34;95626.50;;;16.41;100.00
11198;BME280;5655;48.744;9.162;2022-11-15T10:15:06;95630.69;;;16.26;100.00
11198;BME280;5655;48.744;9.162;2022-11-15T10:18:16;95626.09;;;16.23;100.00
11198;BME280;5655;48.744;9.162;2022-11-15T10:20:48;95626.09;;;16.23;100.00
11198;BME280;5655;48.744;9.162;2022-11-15T10:23:16;95616.22;;;15.97;100.00
11198;BME280;5655;48.744;9.162;2022-11-15T10:25:43;95612.19;;;15.85;100.00
11198;BME280;5655;48.744;9.162;2022-11-15T10:28:22;95610.88;;;16.32;100.00
11198;BME280;5655;48.744;9.162;2022-11-15T10:30:51;95608.94;;;15.94;100.00
11198;BME280;5655;48.744;9.162;2022-11-15T10:33:36;95605.19;;;16.27;100.00
11198;BME280;5655;48.744;9.162;2022-11-15T10:46:37;95595.16;;;15.88;100.00
11198;BME280;5655;48.744;9.162;2022-11-15T10:51:51;95581.19;;;15.93;100.00
11198;BME280;5655;48.744;9.162;2022-11-15T10:54:24;95581.88;;;16.17;100.00
11198;BME280;5655;48.744;9.162;2022-11-15T10:56:52;95580.94;;;15.87;100.00
11198;BME280;5655;48.744;9.162;2022-11-15T10:59:26;95568.56;;;15.70;100.00
11198;BME280;5655;48.744;9.162;2022-11-15T11:01:53;95583.13;;;15.53;100.00
11198;BME280;5655;48.744;9.162;2022-11-15T11:04:19;95577.47;;;15.67;100.00
11198;BME280;5655;48.744;9.162;2022-11-15T11:06:48;95573.22;;;15.66;100.00
11198;BME280;5655;48.744;9.162;2022-11-15T11:09:36;95575.44;;;16.11;100.00
11198;BME280;5655;48.744;9.162;2022-11-15T11:12:04;95576.13;;;16.15;100.00
11198;BME280;5655;48.744;9.162;2022-11-15T11:14:35;95574.66;;;15.74;100.00
11198;BME280;5655;48.744;9.162;2022-11-15T11:22:11;95570.88;;;16.08;100.00
11198;BME280;5655;48.744;9.162;2022-11-15T11:24:59;95566.66;;;16.07;100.00
11198;BME280;5655;48.744;9.162;2022-11-15T11:32:43;95551.94;;;15.92;100.00
11198;BME280;5655;48.744;9.162;2022-11-15T11:35:15;95553.59;;;15.85;100.00
11198;BME280;5655;48.744;9.162;2022-11-15T11:37:54;95554.53;;;16.15;100.00
11198;BME280;5655;48.744;9.162;2022-11-15T11:40:41;95544.84;;;16.17;100.00
11198;BME280;5655;48.744;9.162;2022-11-15T11:43:32;95536.06;;;16.13;100.00
11198;BME280;5655;48.744;9.162;2022-11-15T11:46:18;95536.38;;;16.35;100.00
11198;BME280;5655;48.744;9.162;2022-11-15T11:48:54;95522.97;;;16.12;100.00
11198;BME280;5655;48.744;9.162;2022-11-15T11:51:30;95529.63;;;16.43;100.00
11198;BME280;5655;48.744;9.162;2022-11-15T11:54:04;95519.25;;;16.06;100.00
11198;BME280;5655;48.744;9.162;2022-11-15T11:56:35;95526.66;;;16.54;100.00
11198;BME280;5655;48.744;9.162;2022-11-15T11:59:27;95524.63;;;16.25;100.00
11198;BME280;5655;48.744;9.162;2022-11-15T12:01:57;95517.03;;;16.37;100.00
11198;BME280;5655;48.744;9.162;2022-11-15T12:04:37;95519.63;;;16.40;100.00
11198;BME280;5655;48.744;9.162;2022-11-15T12:07:10;95516.25;;;16.36;100.00
11198;BME280;5655;48.744;9.162;2022-11-15T12:09:46;95507.69;;;16.90;100.00
11198;BME280;5655;48.744;9.162;2022-11-15T12:12:21;95507.53;;;16.81;100.00
11198;BME280;5655;48.744;9.162;2022-11-15T12:17:29;95505.41;;;16.56;100.00
11198;BME280;5655;48.744;9.162;2022-11-15T12:19:58;95499.06;;;16.78;100.00
11198;BME280;5655;48.744;9.162;2022-11-15T12:25:03;95499.94;;;16.59;100.00
11198;BME280;5655;48.744;9.162;2022-11-15T12:27:33;95498.88;;;16.53;100.00
11198;BME280;5655;48.744;9.162;2022-11-15T12:30:13;95498.31;;;16.46;100.00
11198;BME280;5655;48.744;9.162;2022-11-15T12:32:49;95493.47;;;16.53;100.00
11198;BME280;5655;48.744;9.162;2022-11-15T12:35:26;95492.66;;;16.56;100.00
11198;BME280;5655;48.744;9.162;2022-11-15T12:37:54;95492.41;;;16.34;100.00
11198;BME280;5655;48.744;9.162;2022-11-15T12:43:41;95493.56;;;16.50;100.00
11198;BME280;5655;48.744;9.162;2022-11-15T12:46:13;95488.94;;;16.50;100.00
11198;BME280;5655;48.744;9.162;2022-11-15T12:51:08;95477.09;;;16.28;100.00
11198;BME280;5655;48.744;9.162;2022-11-15T12:53:34;95485.38;;;16.37;100.00
11198;BME280;5655;48.744;9.162;2022-11-15T13:06:45;95460.69;;;15.67;100.00
11198;BME280;5655;48.744;9.162;2022-11-15T13:11:56;95449.66;;;15.61;100.00
11198;BME280;5655;48.744;9.162;2022-11-15T13:17:09;95443.88;;;15.79;100.00
11198;BME280;5655;48.744;9.162;2022-11-15T13:19:37;95435.41;;;15.61;100.00
11198;BME280;5655;48.744;9.162;2022-11-15T13:22:06;95431.69;;;15.71;100.00
11198;BME280;5655;48.744;9.162;2022-11-15T13:24:52;95427.94;;;15.49;100.00
11198;BME280;5655;48.744;9.162;2022-11-15T13:27:19;95427.72;;;15.59;100.00
11198;BME280;5655;48.744;9.162;2022-11-15T13:29:44;95423.34;;;15.45;100.00
11198;BME280;5655;48.744;9.162;2022-11-15T13:32:14;95416.09;;;15.62;100.00
11198;BME280;5655;48.744;9.162;2022-11-15T13:34:45;95412.47;;;15.53;100.00
11198;BME280;5655;48.744;9.162;2022-11-15T13:39:48;95395.09;;;15.34;100.00
11198;BME280;5655;48.744;9.162;2022-11-15T13:42:18;95389.69;;;15.34;100.00
11198;BME280;5655;48.744;9.162;2022-11-15T13:45:04;95391.41;;;15.44;100.00
11198;BME280;5655;48.744;9.162;2022-11-15T13:47:30;95385.03;;;15.18;100.00
11198;BME280;5655;48.744;9.162;2022-11-15T13:49:57;95379.13;;;15.04;100.00
11198;BME280;5655;48.744;9.162;2022-11-15T13:52:27;95373.81;;;15.20;100.00
11198;BME280;5655;48.744;9.162;2022-11-15T13:55:00;95373.03;;;15.39;100.00
11198;BME280;5655;48.744;9.162;2022-11-15T13:57:51;95375.28;;;15.40;100.00
11198;BME280;5655;48.744;9.162;2022-11-15T14:02:55;95359.31;;;15.14;100.00
11198;BME280;5655;48.744;9.162;2022-11-15T14:05:24;95346.56;;;15.34;100.00
11198;BME280;5655;48.744;9.162;2022-11-15T14:10:44;95331.25;;;14.52;100.00
11198;BME280;5655;48.744;9.162;2022-11-15T14:13:27;95330.00;;;14.76;100.00
11198;BME280;5655;48.744;9.162;2022-11-15T14:15:52;95326.88;;;14.38;100.00
11198;BME280;5655;48.744;9.162;2022-11-15T14:21:09;95333.53;;;14.53;100.00
11198;BME280;5655;48.744;9.162;2022-11-15T14:23:35;95320.59;;;14.22;100.00
11198;BME280;5655;48.744;9.162;2022-11-15T14:26:01;95304.09;;;14.20;100.00
11198;BME280;5655;48.744;9.162;2022-11-15T14:30:54;95303.75;;;14.18;100.00
11198;BME280;5655;48.744;9.162;2022-11-15T14:33:30;95302.09;;;14.47;100.00
11198;BME280;5655;48.744;9.162;2022-11-15T14:36:03;95294.94;;;14.40;100.00
11198;BME280;5655;48.744;9.162;2022-11-15T14:38:29;95292.16;;;14.21;100.00
11198;BME280;5655;48.744;9.162;2022-11-15T14:40:54;95287.25;;;14.16;100.00
11198;BME280;5655;48.744;9.162;2022-11-15T14:43:21;95284.53;;;13.96;100.00
11198;BME280;5655;48.744;9.162;2022-11-15T14:45:47;95285.16;;;14.03;100.00
11198;BME280;5655;48.744;9.162;2022-11-15T14:48:12;95281.31;;;14.04;100.00
11198;BME280;5655;48.744;9.162;2022-11-15T14:50:37;95285.41;;;13.89;100.00
11198;BME280;5655;48.744;9.162;2022-11-15T14:53:04;95281.69;;;13.83;100.00